sensor_id;sensor_type;location;lat;lon;timestamp;temperature;humidity
20208;DHT22;10263;48.716;8.760;2023-02-28T00:01:26;-2.50;98.50
20208;DHT22;10263;48.716;8.760;2023-02-28T00:03:53;-2.50;98.70
20208;DHT22;10263;48.716;8.760;2023-02-28T00:06:20;-2.50;98.60
20208;DHT22;10263;48.716;8.760;2023-02-28T00:08:47;-2.50;98.90
20208;DHT22;10263;48.716;8.760;2023-02-28T00:11:15;-2.60;99.00
20208;DHT22;10263;48.716;8.760;2023-02-28T00:13:44;-2.60;99.30
20208;DHT22;10263;48.716;8.760;2023-02-28T00:16:14;-2.60;99.50
20208;DHT22;10263;48.716;8.760;2023-02-28T00:18:42;-2.60;99.20
20208;DHT22;10263;48.716;8.760;2023-02-28T00:21:09;-2.60;99.40
20208;DHT22;10263;48.716;8.760;2023-02-28T00:23:37;-2.40;99.60
20208;DHT22;10263;48.716;8.760;2023-02-28T00:26:04;-2.70;99.60
20208;DHT22;10263;48.716;8.760;2023-02-28T00:28:31;-2.70;99.70
20208;DHT22;10263;48.716;8.760;2023-02-28T00:30:58;-2.70;99.80
20208;DHT22;10263;48.716;8.760;2023-02-28T00:33:26;-2.70;99.90
20208;DHT22;10263;48.716;8.760;2023-02-28T00:36:03;-2.70;99.90
20208;DHT22;10263;48.716;8.760;2023-02-28T00:38:30;-2.70;99.90
20208;DHT22;10263;48.716;8.760;2023-02-28T00:40:57;-2.70;99.90
20208;DHT22;10263;48.716;8.760;2023-02-28T00:43:30;-2.80;99.90
20208;DHT22;10263;48.716;8.760;2023-02-28T00:45:57;-2.80;99.90
20208;DHT22;10263;48.716;8.760;2023-02-28T00:48:24;-1.00;99.90
20208;DHT22;10263;48.716;8.760;2023-02-28T00:50:50;-2.80;99.90
20208;DHT22;10263;48.716;8.760;2023-02-28T00:53:19;-2.90;99.90
20208;DHT22;10263;48.716;8.760;2023-02-28T00:55:45;-2.90;99.90
20208;DHT22;10263;48.716;8.760;2023-02-28T00:58:12;-2.90;99.90
20208;DHT22;10263;48.716;8.760;2023-02-28T01:00:39;-2.90;99.90
20208;DHT22;10263;48.716;8.760;2023-02-28T01:03:06;-2.90;99.90
20208;DHT22;10263;48.716;8.760;2023-02-28T01:05:32;-2.90;99.90
20208;DHT22;10263;48.716;8.760;2023-02-28T01:07:59;-2.90;99.90
20208;DHT22;10263;48.716;8.760;2023-02-28T01:10:29;-3.00;99.90
20208;DHT22;10263;48.716;8.760;2023-02-28T01:12:57;-3.00;99.90
20208;DHT22;10263;48.716;8.760;2023-02-28T01:15:24;-3.00;99.90
20208;DHT22;10263;48.716;8.760;2023-02-28T01:17:51;-3.00;99.90
20208;DHT22;10263;48.716;8.760;2023-02-28T01:20:18;-3.10;99.90
20208;DHT22;10263;48.716;8.760;2023-02-28T01:22:44;-3.10;99.90
20208;DHT22;10263;48.716;8.760;2023-02-28T01:25:12;-3.10;99.90
20208;DHT22;10263;48.716;8.760;2023-02-28T01:27:40;-3.10;99.90
20208;DHT22;10263;48.716;8.760;2023-02-28T01:30:09;-3.10;99.90
20208;DHT22;10263;48.716;8.760;2023-02-28T01:32:36;-3.10;99.90
20208;DHT22;10263;48.716;8.760;2023-02-28T01:35:03;-3.20;99.90
20208;DHT22;10263;48.716;8.760;2023-02-28T01:37:30;-3.20;99.90
20208;DHT22;10263;48.716;8.760;2023-02-28T01:39:57;-3.20;99.90
20208;DHT22;10263;48.716;8.760;2023-02-28T01:42:24;-3.20;99.90
20208;DHT22;10263;48.716;8.760;2023-02-28T01:45:00;-3.10;99.90
20208;DHT22;10263;48.716;8.760;2023-02-28T01:47:29;-3.20;99.90
20208;DHT22;10263;48.716;8.760;2023-02-28T01:49:57;-3.20;99.90
20208;DHT22;10263;48.716;8.760;2023-02-28T01:52:25;-3.20;99.90
20208;DHT22;10263;48.716;8.760;2023-02-28T01:54:56;-3.20;99.90
20208;DHT22;10263;48.716;8.760;2023-02-28T01:57:27;-3.20;99.90
20208;DHT22;10263;48.716;8.760;2023-02-28T01:59:58;-3.20;99.90
20208;DHT22;10263;48.716;8.760;2023-02-28T02:02:27;-3.30;99.90
20208;DHT22;10263;48.716;8.760;2023-02-28T02:04:59;-3.30;99.90
20208;DHT22;10263;48.716;8.760;2023-02-28T02:07:29;-3.30;99.90
20208;DHT22;10263;48.716;8.760;2023-02-28T02:10:02;-3.20;99.90
20208;DHT22;10263;48.716;8.760;2023-02-28T02:12:43;-3.30;99.90
20208;DHT22;10263;48.716;8.760;2023-02-28T02:15:17;-3.30;99.90
20208;DHT22;10263;48.716;8.760;2023-02-28T02:17:50;-3.30;99.90
20208;DHT22;10263;48.716;8.760;2023-02-28T02:23:43;-3.40;99.90
20208;DHT22;10263;48.716;8.760;2023-02-28T02:26:32;-3.30;99.90
20208;DHT22;10263;48.716;8.760;2023-02-28T02:29:32;-3.30;99.90
20208;DHT22;10263;48.716;8.760;2023-02-28T02:32:17;-3.40;99.90
20208;DHT22;10263;48.716;8.760;2023-02-28T02:34:54;-3.40;99.90
20208;DHT22;10263;48.716;8.760;2023-02-28T02:37:30;-3.40;99.90
20208;DHT22;10263;48.716;8.760;2023-02-28T02:40:05;-3.40;99.90
20208;DHT22;10263;48.716;8.760;2023-02-28T02:42:39;-3.40;99.90
20208;DHT22;10263;48.716;8.760;2023-02-28T02:45:11;-3.40;99.90
20208;DHT22;10263;48.716;8.760;2023-02-28T02:47:39;-3.40;99.90
20208;DHT22;10263;48.716;8.760;2023-02-28T02:50:14;-3.40;99.90
20208;DHT22;10263;48.716;8.760;2023-02-28T02:52:44;-3.40;99.90
20208;DHT22;10263;48.716;8.760;2023-02-28T02:55:13;-3.40;99.90
20208;DHT22;10263;48.716;8.760;2023-02-28T02:57:46;-3.40;99.90
20208;DHT22;10263;48.716;8.760;2023-02-28T03:00:16;-3.40;99.90
20208;DHT22;10263;48.716;8.760;2023-02-28T03:02:47;-3.40;99.90
20208;DHT22;10263;48.716;8.760;2023-02-28T03:05:21;-3.40;99.90
20208;DHT22;10263;48.716;8.760;2023-02-28T03:07:50;-3.40;99.90
20208;DHT22;10263;48.716;8.760;2023-02-28T03:10:35;-3.50;99.90
20208;DHT22;10263;48.716;8.760;2023-02-28T03:13:20;-3.40;99.90
20208;DHT22;10263;48.716;8.760;2023-02-28T03:15:58;-3.50;99.90
20208;DHT22;10263;48.716;8.760;2023-02-28T03:18:34;-2.90;99.90
20208;DHT22;10263;48.716;8.760;2023-02-28T03:21:12;-3.50;99.90
20208;DHT22;10263;48.716;8.760;2023-02-28T03:23:47;-3.50;99.90
20208;DHT22;10263;48.716;8.760;2023-02-28T03:26:20;-3.50;99.90
20208;DHT22;10263;48.716;8.760;2023-02-28T03:28:54;-3.50;99.90
20208;DHT22;10263;48.716;8.760;2023-02-28T03:31:27;-3.50;99.90
20208;DHT22;10263;48.716;8.760;2023-02-28T03:34:00;-3.50;99.90
20208;DHT22;10263;48.716;8.760;2023-02-28T03:36:32;-3.50;99.90
20208;DHT22;10263;48.716;8.760;2023-02-28T03:39:04;-3.50;99.90
20208;DHT22;10263;48.716;8.760;2023-02-28T03:41:39;-3.50;99.90
20208;DHT22;10263;48.716;8.760;2023-02-28T03:44:13;-3.40;99.90
20208;DHT22;10263;48.716;8.760;2023-02-28T03:46:45;-3.40;99.90
20208;DHT22;10263;48.716;8.760;2023-02-28T03:49:17;-3.40;99.90
20208;DHT22;10263;48.716;8.760;2023-02-28T03:51:50;-3.40;99.90
20208;DHT22;10263;48.716;8.760;2023-02-28T03:54:19;-3.40;99.90
20208;DHT22;10263;48.716;8.760;2023-02-28T03:56:51;-3.40;99.90
20208;DHT22;10263;48.716;8.760;2023-02-28T03:59:23;-3.40;99.90
20208;DHT22;10263;48.716;8.760;2023-02-28T04:01:52;-3.40;99.90
20208;DHT22;10263;48.716;8.760;2023-02-28T04:04:20;-3.30;99.90
20208;DHT22;10263;48.716;8.760;2023-02-28T04:06:51;-3.30;99.90
20208;DHT22;10263;48.716;8.760;2023-02-28T04:09:18;-3.30;99.90
20208;DHT22;10263;48.716;8.760;2023-02-28T04:11:46;-3.30;99.90
20208;DHT22;10263;48.716;8.760;2023-02-28T04:14:14;-3.30;99.90
20208;DHT22;10263;48.716;8.760;2023-02-28T04:16:42;-3.30;99.90
20208;DHT22;10263;48.716;8.760;2023-02-28T04:19:10;-3.30;99.90
20208;DHT22;10263;48.716;8.760;2023-02-28T04:21:38;-3.30;99.90
20208;DHT22;10263;48.716;8.760;2023-02-28T04:24:08;-3.40;99.90
20208;DHT22;10263;48.716;8.760;2023-02-28T04:26:40;-3.40;99.90
20208;DHT22;10263;48.716;8.760;2023-02-28T04:29:09;-3.30;99.90
20208;DHT22;10263;48.716;8.760;2023-02-28T04:31:36;-3.30;99.90
20208;DHT22;10263;48.716;8.760;2023-02-28T04:34:04;-3.30;99.90
20208;DHT22;10263;48.716;8.760;2023-02-28T04:36:31;-3.30;99.90
20208;DHT22;10263;48.716;8.760;2023-02-28T04:38:58;-3.30;99.90
20208;DHT22;10263;48.716;8.760;2023-02-28T04:41:26;-3.30;99.90
20208;DHT22;10263;48.716;8.760;2023-02-28T04:43:53;-3.30;99.90
20208;DHT22;10263;48.716;8.760;2023-02-28T04:46:19;-3.20;99.90
20208;DHT22;10263;48.716;8.760;2023-02-28T04:48:46;-3.20;99.90
20208;DHT22;10263;48.716;8.760;2023-02-28T04:51:15;-3.20;99.90
20208;DHT22;10263;48.716;8.760;2023-02-28T04:53:42;-3.20;99.90
20208;DHT22;10263;48.716;8.760;2023-02-28T04:56:11;-3.20;99.90
20208;DHT22;10263;48.716;8.760;2023-02-28T04:58:40;-3.20;99.90
20208;DHT22;10263;48.716;8.760;2023-02-28T05:01:16;-3.20;99.90
20208;DHT22;10263;48.716;8.760;2023-02-28T05:03:44;-3.10;99.90
20208;DHT22;10263;48.716;8.760;2023-02-28T05:06:11;-3.20;99.90
20208;DHT22;10263;48.716;8.760;2023-02-28T05:08:39;-3.10;99.90
20208;DHT22;10263;48.716;8.760;2023-02-28T05:11:07;-3.10;99.90
20208;DHT22;10263;48.716;8.760;2023-02-28T05:16:05;-3.10;99.90
20208;DHT22;10263;48.716;8.760;2023-02-28T05:20:59;-3.00;99.90
20208;DHT22;10263;48.716;8.760;2023-02-28T05:23:27;-3.10;99.90
20208;DHT22;10263;48.716;8.760;2023-02-28T05:25:54;-3.00;99.90
20208;DHT22;10263;48.716;8.760;2023-02-28T05:28:21;-3.10;99.90
20208;DHT22;10263;48.716;8.760;2023-02-28T05:30:48;-3.00;99.90
20208;DHT22;10263;48.716;8.760;2023-02-28T05:33:16;-3.00;99.90
20208;DHT22;10263;48.716;8.760;2023-02-28T05:35:43;-3.00;99.90
20208;DHT22;10263;48.716;8.760;2023-02-28T05:38:10;-3.00;99.90
20208;DHT22;10263;48.716;8.760;2023-02-28T05:40:38;-3.00;99.90
20208;DHT22;10263;48.716;8.760;2023-02-28T05:43:05;-3.00;99.90
20208;DHT22;10263;48.716;8.760;2023-02-28T05:45:32;-3.00;99.90
20208;DHT22;10263;48.716;8.760;2023-02-28T05:47:59;-2.90;99.90
20208;DHT22;10263;48.716;8.760;2023-02-28T05:50:27;-2.90;99.90
20208;DHT22;10263;48.716;8.760;2023-02-28T05:52:54;-2.90;99.90
20208;DHT22;10263;48.716;8.760;2023-02-28T05:57:48;-2.90;99.90
20208;DHT22;10263;48.716;8.760;2023-02-28T06:00:15;-2.90;99.90
20208;DHT22;10263;48.716;8.760;2023-02-28T06:05:13;-2.80;99.90
20208;DHT22;10263;48.716;8.760;2023-02-28T06:07:41;-2.80;99.90
20208;DHT22;10263;48.716;8.760;2023-02-28T06:10:09;-2.80;99.90
20208;DHT22;10263;48.716;8.760;2023-02-28T06:12:37;-2.80;99.90
20208;DHT22;10263;48.716;8.760;2023-02-28T06:15:04;-2.80;99.90
20208;DHT22;10263;48.716;8.760;2023-02-28T06:17:31;-2.80;99.90
20208;DHT22;10263;48.716;8.760;2023-02-28T06:19:58;-2.80;99.90
20208;DHT22;10263;48.716;8.760;2023-02-28T06:22:25;-2.80;99.90
20208;DHT22;10263;48.716;8.760;2023-02-28T06:24:53;-2.80;99.90
20208;DHT22;10263;48.716;8.760;2023-02-28T06:27:20;-2.80;99.90
20208;DHT22;10263;48.716;8.760;2023-02-28T06:32:14;-2.70;99.90
20208;DHT22;10263;48.716;8.760;2023-02-28T06:34:41;-3.90;99.90
20208;DHT22;10263;48.716;8.760;2023-02-28T06:39:35;-2.70;99.90
20208;DHT22;10263;48.716;8.760;2023-02-28T06:42:03;-2.70;99.90
20208;DHT22;10263;48.716;8.760;2023-02-28T06:44:30;-2.70;99.90
20208;DHT22;10263;48.716;8.760;2023-02-28T06:49:28;-2.70;99.90
20208;DHT22;10263;48.716;8.760;2023-02-28T06:51:55;-2.10;99.90
20208;DHT22;10263;48.716;8.760;2023-02-28T06:54:22;-2.70;99.90
20208;DHT22;10263;48.716;8.760;2023-02-28T06:56:49;-2.60;99.90
20208;DHT22;10263;48.716;8.760;2023-02-28T06:59:17;-2.60;99.90
20208;DHT22;10263;48.716;8.760;2023-02-28T07:01:44;-2.60;99.90
20208;DHT22;10263;48.716;8.760;2023-02-28T07:04:11;-2.60;99.90
20208;DHT22;10263;48.716;8.760;2023-02-28T07:06:38;-2.50;99.90
20208;DHT22;10263;48.716;8.760;2023-02-28T07:09:05;-2.60;99.90
20208;DHT22;10263;48.716;8.760;2023-02-28T07:11:32;-2.50;99.90
20208;DHT22;10263;48.716;8.760;2023-02-28T07:13:59;-2.50;99.90
20208;DHT22;10263;48.716;8.760;2023-02-28T07:16:27;-2.40;99.90
20208;DHT22;10263;48.716;8.760;2023-02-28T07:18:54;-2.40;99.90
20208;DHT22;10263;48.716;8.760;2023-02-28T07:21:22;-2.30;99.90
20208;DHT22;10263;48.716;8.760;2023-02-28T07:23:49;-2.30;99.90
20208;DHT22;10263;48.716;8.760;2023-02-28T07:26:17;-2.30;99.90
20208;DHT22;10263;48.716;8.760;2023-02-28T07:28:47;-2.20;99.90
20208;DHT22;10263;48.716;8.760;2023-02-28T07:31:14;-2.20;99.90
20208;DHT22;10263;48.716;8.760;2023-02-28T07:33:43;-2.20;99.90
20208;DHT22;10263;48.716;8.760;2023-02-28T07:36:13;-2.20;99.90
20208;DHT22;10263;48.716;8.760;2023-02-28T07:38:41;-2.20;99.90
20208;DHT22;10263;48.716;8.760;2023-02-28T07:41:09;-2.20;99.90
20208;DHT22;10263;48.716;8.760;2023-02-28T07:43:36;-2.20;99.90
20208;DHT22;10263;48.716;8.760;2023-02-28T07:46:04;-2.20;99.90
20208;DHT22;10263;48.716;8.760;2023-02-28T07:48:32;-2.10;99.90
20208;DHT22;10263;48.716;8.760;2023-02-28T07:51:01;-2.10;99.90
20208;DHT22;10263;48.716;8.760;2023-02-28T07:53:28;-2.10;99.90
20208;DHT22;10263;48.716;8.760;2023-02-28T07:55:56;-2.10;99.90
20208;DHT22;10263;48.716;8.760;2023-02-28T07:58:23;-2.10;99.90
20208;DHT22;10263;48.716;8.760;2023-02-28T08:00:50;-2.00;99.90
20208;DHT22;10263;48.716;8.760;2023-02-28T08:03:18;-2.00;99.90
20208;DHT22;10263;48.716;8.760;2023-02-28T08:05:45;-2.00;99.90
20208;DHT22;10263;48.716;8.760;2023-02-28T08:08:13;-2.00;99.90
20208;DHT22;10263;48.716;8.760;2023-02-28T08:13:07;-2.00;99.90
20208;DHT22;10263;48.716;8.760;2023-02-28T08:15:34;-2.00;99.90
20208;DHT22;10263;48.716;8.760;2023-02-28T08:18:01;-2.00;99.90
20208;DHT22;10263;48.716;8.760;2023-02-28T08:20:28;-1.90;99.90
20208;DHT22;10263;48.716;8.760;2023-02-28T08:22:56;-1.90;99.90
20208;DHT22;10263;48.716;8.760;2023-02-28T08:25:24;-1.90;99.90
20208;DHT22;10263;48.716;8.760;2023-02-28T08:27:51;-1.90;99.90
20208;DHT22;10263;48.716;8.760;2023-02-28T08:30:18;-1.80;99.90
20208;DHT22;10263;48.716;8.760;2023-02-28T08:32:45;-1.80;99.90
20208;DHT22;10263;48.716;8.760;2023-02-28T08:35:12;-1.80;99.90
20208;DHT22;10263;48.716;8.760;2023-02-28T08:37:38;-1.70;99.90
20208;DHT22;10263;48.716;8.760;2023-02-28T08:40:07;-1.70;99.90
20208;DHT22;10263;48.716;8.760;2023-02-28T08:42:35;-1.70;99.90
20208;DHT22;10263;48.716;8.760;2023-02-28T08:45:02;-1.70;99.90
20208;DHT22;10263;48.716;8.760;2023-02-28T08:47:29;-1.70;99.90
20208;DHT22;10263;48.716;8.760;2023-02-28T08:49:56;-1.20;99.90
20208;DHT22;10263;48.716;8.760;2023-02-28T08:52:23;-1.60;99.90
20208;DHT22;10263;48.716;8.760;2023-02-28T08:54:50;-1.60;99.90
20208;DHT22;10263;48.716;8.760;2023-02-28T08:57:16;-1.60;99.90
20208;DHT22;10263;48.716;8.760;2023-02-28T08:59:44;-1.60;99.90
20208;DHT22;10263;48.716;8.760;2023-02-28T09:02:12;-1.50;99.90
20208;DHT22;10263;48.716;8.760;2023-02-28T09:04:40;-1.50;99.90
20208;DHT22;10263;48.716;8.760;2023-02-28T09:07:07;-1.50;99.90
20208;DHT22;10263;48.716;8.760;2023-02-28T09:09:34;-0.30;99.90
20208;DHT22;10263;48.716;8.760;2023-02-28T09:12:00;-1.50;99.90
20208;DHT22;10263;48.716;8.760;2023-02-28T09:14:27;-1.40;99.90
20208;DHT22;10263;48.716;8.760;2023-02-28T09:16:56;-1.40;99.90
20208;DHT22;10263;48.716;8.760;2023-02-28T09:19:22;-1.50;99.90
20208;DHT22;10263;48.716;8.760;2023-02-28T09:21:49;-1.30;99.90
20208;DHT22;10263;48.716;8.760;2023-02-28T09:24:16;-1.40;99.90
20208;DHT22;10263;48.716;8.760;2023-02-28T09:26:43;-1.40;99.90
20208;DHT22;10263;48.716;8.760;2023-02-28T09:29:10;-1.40;99.90
20208;DHT22;10263;48.716;8.760;2023-02-28T09:31:37;-1.30;99.90
20208;DHT22;10263;48.716;8.760;2023-02-28T09:34:05;-1.30;99.90
20208;DHT22;10263;48.716;8.760;2023-02-28T09:36:32;-1.30;99.90
20208;DHT22;10263;48.716;8.760;2023-02-28T09:39:00;-1.30;99.90
20208;DHT22;10263;48.716;8.760;2023-02-28T09:41:31;-1.30;99.90
20208;DHT22;10263;48.716;8.760;2023-02-28T09:44:03;-1.20;99.90
20208;DHT22;10263;48.716;8.760;2023-02-28T09:46:33;-1.10;99.90
20208;DHT22;10263;48.716;8.760;2023-02-28T09:49:02;-1.20;99.90
20208;DHT22;10263;48.716;8.760;2023-02-28T09:51:40;-1.10;99.90
20208;DHT22;10263;48.716;8.760;2023-02-28T09:54:14;-1.10;99.90
20208;DHT22;10263;48.716;8.760;2023-02-28T09:56:45;-1.10;99.90
20208;DHT22;10263;48.716;8.760;2023-02-28T09:59:25;-1.10;99.90
20208;DHT22;10263;48.716;8.760;2023-02-28T10:02:04;-1.10;99.90
20208;DHT22;10263;48.716;8.760;2023-02-28T10:04:40;-1.00;99.90
20208;DHT22;10263;48.716;8.760;2023-02-28T10:07:19;-1.00;99.90
20208;DHT22;10263;48.716;8.760;2023-02-28T10:09:52;-0.90;99.90
20208;DHT22;10263;48.716;8.760;2023-02-28T10:12:19;-0.90;99.90
20208;DHT22;10263;48.716;8.760;2023-02-28T10:14:49;-0.90;99.90
20208;DHT22;10263;48.716;8.760;2023-02-28T10:17:19;-0.90;99.90
20208;DHT22;10263;48.716;8.760;2023-02-28T10:19:53;-0.90;99.90
20208;DHT22;10263;48.716;8.760;2023-02-28T10:22:26;-0.80;99.90
20208;DHT22;10263;48.716;8.760;2023-02-28T10:24:55;-0.80;99.90
20208;DHT22;10263;48.716;8.760;2023-02-28T10:27:29;-0.80;99.90
20208;DHT22;10263;48.716;8.760;2023-02-28T10:29:58;-0.80;99.90
20208;DHT22;10263;48.716;8.760;2023-02-28T10:32:27;-0.70;99.90
20208;DHT22;10263;48.716;8.760;2023-02-28T10:34:57;-0.60;99.90
20208;DHT22;10263;48.716;8.760;2023-02-28T10:37:27;-0.60;99.90
20208;DHT22;10263;48.716;8.760;2023-02-28T10:39:54;-0.60;99.90
20208;DHT22;10263;48.716;8.760;2023-02-28T10:42:23;-0.50;99.90
20208;DHT22;10263;48.716;8.760;2023-02-28T10:45:11;-0.40;99.90
20208;DHT22;10263;48.716;8.760;2023-02-28T10:47:49;-0.30;99.90
20208;DHT22;10263;48.716;8.760;2023-02-28T10:50:32;-0.30;99.90
20208;DHT22;10263;48.716;8.760;2023-02-28T10:53:14;-0.30;99.90
20208;DHT22;10263;48.716;8.760;2023-02-28T10:55:42;-0.20;99.90
20208;DHT22;10263;48.716;8.760;2023-02-28T10:58:21;-0.30;99.90
20208;DHT22;10263;48.716;8.760;2023-02-28T11:00:48;-0.20;99.90
20208;DHT22;10263;48.716;8.760;2023-02-28T11:03:24;-0.10;99.90
20208;DHT22;10263;48.716;8.760;2023-02-28T11:05:51;-0.10;99.90
20208;DHT22;10263;48.716;8.760;2023-02-28T11:08:20;0.00;99.90
20208;DHT22;10263;48.716;8.760;2023-02-28T11:10:52;0.10;99.90
20208;DHT22;10263;48.716;8.760;2023-02-28T11:13:21;0.20;99.90
20208;DHT22;10263;48.716;8.760;2023-02-28T11:15:52;0.30;99.90
20208;DHT22;10263;48.716;8.760;2023-02-28T11:18:24;0.30;99.90
20208;DHT22;10263;48.716;8.760;2023-02-28T11:20:53;0.40;99.90
20208;DHT22;10263;48.716;8.760;2023-02-28T11:23:24;0.40;99.90
20208;DHT22;10263;48.716;8.760;2023-02-28T11:25:53;0.40;99.90
20208;DHT22;10263;48.716;8.760;2023-02-28T11:28:28;0.60;99.90
20208;DHT22;10263;48.716;8.760;2023-02-28T11:31:02;0.50;99.90
20208;DHT22;10263;48.716;8.760;2023-02-28T11:33:30;0.60;99.90
20208;DHT22;10263;48.716;8.760;2023-02-28T11:36:01;0.60;99.90
20208;DHT22;10263;48.716;8.760;2023-02-28T11:38:30;0.80;99.90
20208;DHT22;10263;48.716;8.760;2023-02-28T11:41:08;0.90;99.90
20208;DHT22;10263;48.716;8.760;2023-02-28T11:43:52;1.00;99.90
20208;DHT22;10263;48.716;8.760;2023-02-28T11:46:24;1.00;99.90
20208;DHT22;10263;48.716;8.760;2023-02-28T11:49:02;1.10;99.90
20208;DHT22;10263;48.716;8.760;2023-02-28T11:51:34;1.20;99.90
20208;DHT22;10263;48.716;8.760;2023-02-28T11:54:23;1.30;99.90
20208;DHT22;10263;48.716;8.760;2023-02-28T11:56:55;1.40;99.90
20208;DHT22;10263;48.716;8.760;2023-02-28T11:59:43;1.60;99.90
20208;DHT22;10263;48.716;8.760;2023-02-28T12:02:35;1.70;99.90
20208;DHT22;10263;48.716;8.760;2023-02-28T12:05:14;1.90;99.90
20208;DHT22;10263;48.716;8.760;2023-02-28T12:07:50;2.10;99.90
20208;DHT22;10263;48.716;8.760;2023-02-28T12:10:26;2.30;99.90
20208;DHT22;10263;48.716;8.760;2023-02-28T12:13:11;2.50;99.90
20208;DHT22;10263;48.716;8.760;2023-02-28T12:16:12;2.80;99.90
20208;DHT22;10263;48.716;8.760;2023-02-28T12:19:07;3.00;99.90
20208;DHT22;10263;48.716;8.760;2023-02-28T12:21:48;3.20;99.90
20208;DHT22;10263;48.716;8.760;2023-02-28T12:24:43;4.20;99.90
20208;DHT22;10263;48.716;8.760;2023-02-28T12:27:16;3.70;99.90
20208;DHT22;10263;48.716;8.760;2023-02-28T12:29:47;4.10;99.90
20208;DHT22;10263;48.716;8.760;2023-02-28T12:32:20;4.60;99.90
20208;DHT22;10263;48.716;8.760;2023-02-28T12:34:50;4.90;99.90
20208;DHT22;10263;48.716;8.760;2023-02-28T12:37:22;5.30;99.90
20208;DHT22;10263;48.716;8.760;2023-02-28T12:39:54;5.60;99.90
20208;DHT22;10263;48.716;8.760;2023-02-28T12:42:30;6.10;99.50
20208;DHT22;10263;48.716;8.760;2023-02-28T12:44:59;6.30;98.70
20208;DHT22;10263;48.716;8.760;2023-02-28T12:47:27;6.40;98.60
20208;DHT22;10263;48.716;8.760;2023-02-28T12:49:58;6.80;98.60
20208;DHT22;10263;48.716;8.760;2023-02-28T12:52:31;7.10;97.30
20208;DHT22;10263;48.716;8.760;2023-02-28T12:55:06;7.50;95.70
20208;DHT22;10263;48.716;8.760;2023-02-28T12:57:40;7.80;94.20
20208;DHT22;10263;48.716;8.760;2023-02-28T13:00:13;8.00;93.10
20208;DHT22;10263;48.716;8.760;2023-02-28T13:06:05;8.30;92.20
20208;DHT22;10263;48.716;8.760;2023-02-28T13:09:02;8.60;91.30
20208;DHT22;10263;48.716;8.760;2023-02-28T13:11:32;8.90;90.40
20208;DHT22;10263;48.716;8.760;2023-02-28T13:14:02;8.80;90.20
20208;DHT22;10263;48.716;8.760;2023-02-28T13:16:48;8.80;89.10
20208;DHT22;10263;48.716;8.760;2023-02-28T13:19:18;8.70;89.40
20208;DHT22;10263;48.716;8.760;2023-02-28T13:21:47;8.70;88.80
20208;DHT22;10263;48.716;8.760;2023-02-28T13:24:40;8.20;87.60
20208;DHT22;10263;48.716;8.760;2023-02-28T13:29:58;7.80;88.20
20208;DHT22;10263;48.716;8.760;2023-02-28T13:32:31;7.40;89.90
20208;DHT22;10263;48.716;8.760;2023-02-28T13:38:33;7.90;90.10
20208;DHT22;10263;48.716;8.760;2023-02-28T13:44:06;9.40;88.60
20208;DHT22;10263;48.716;8.760;2023-02-28T13:46:37;9.60;84.70
20208;DHT22;10263;48.716;8.760;2023-02-28T13:49:26;9.70;84.90
20208;DHT22;10263;48.716;8.760;2023-02-28T13:51:55;9.50;83.40
20208;DHT22;10263;48.716;8.760;2023-02-28T13:54:40;9.60;83.80
20208;DHT22;10263;48.716;8.760;2023-02-28T13:57:19;10.30;81.30
20208;DHT22;10263;48.716;8.760;2023-02-28T13:59:56;10.30;80.10
20208;DHT22;10263;48.716;8.760;2023-02-28T14:03:03;10.80;77.60
20208;DHT22;10263;48.716;8.760;2023-02-28T14:05:42;10.90;75.80
20208;DHT22;10263;48.716;8.760;2023-02-28T14:08:14;10.80;75.60
20208;DHT22;10263;48.716;8.760;2023-02-28T14:10:45;10.50;75.50
20208;DHT22;10263;48.716;8.760;2023-02-28T14:13:38;10.90;75.00
20208;DHT22;10263;48.716;8.760;2023-02-28T14:16:10;11.50;72.50
20208;DHT22;10263;48.716;8.760;2023-02-28T14:18:41;11.60;72.40
20208;DHT22;10263;48.716;8.760;2023-02-28T14:21:12;12.10;70.40
20208;DHT22;10263;48.716;8.760;2023-02-28T14:23:55;12.10;68.40
20208;DHT22;10263;48.716;8.760;2023-02-28T14:26:37;12.00;69.10
20208;DHT22;10263;48.716;8.760;2023-02-28T14:29:43;11.70;67.00
20208;DHT22;10263;48.716;8.760;2023-02-28T14:32:15;11.10;68.10
20208;DHT22;10263;48.716;8.760;2023-02-28T14:34:53;10.70;68.40
20208;DHT22;10263;48.716;8.760;2023-02-28T14:37:25;10.50;70.00
20208;DHT22;10263;48.716;8.760;2023-02-28T14:39:53;10.30;69.90
20208;DHT22;10263;48.716;8.760;2023-02-28T14:42:32;10.40;71.20
20208;DHT22;10263;48.716;8.760;2023-02-28T14:44:59;10.70;70.20
20208;DHT22;10263;48.716;8.760;2023-02-28T14:47:28;10.90;68.60
20208;DHT22;10263;48.716;8.760;2023-02-28T14:49:58;11.10;68.30
20208;DHT22;10263;48.716;8.760;2023-02-28T14:52:27;11.40;68.10
20208;DHT22;10263;48.716;8.760;2023-02-28T14:54:56;11.70;67.90
20208;DHT22;10263;48.716;8.760;2023-02-28T14:57:26;12.10;66.40
20208;DHT22;10263;48.716;8.760;2023-02-28T15:00:00;12.40;64.70
20208;DHT22;10263;48.716;8.760;2023-02-28T15:02:31;12.30;63.60
20208;DHT22;10263;48.716;8.760;2023-02-28T15:05:18;11.80;64.70
20208;DHT22;10263;48.716;8.760;2023-02-28T15:07:48;11.10;65.80
20208;DHT22;10263;48.716;8.760;2023-02-28T15:10:20;10.90;65.50
20208;DHT22;10263;48.716;8.760;2023-02-28T15:12:52;10.60;66.70
20208;DHT22;10263;48.716;8.760;2023-02-28T15:15:21;10.50;66.20
20208;DHT22;10263;48.716;8.760;2023-02-28T15:17:51;10.30;67.30
20208;DHT22;10263;48.716;8.760;2023-02-28T15:20:21;10.30;66.70
20208;DHT22;10263;48.716;8.760;2023-02-28T15:22:50;10.00;67.20
20208;DHT22;10263;48.716;8.760;2023-02-28T15:25:20;9.90;68.70
20208;DHT22;10263;48.716;8.760;2023-02-28T15:27:48;10.00;68.20
20208;DHT22;10263;48.716;8.760;2023-02-28T15:30:18;9.70;69.80
20208;DHT22;10263;48.716;8.760;2023-02-28T15:33:02;9.40;69.70
20208;DHT22;10263;48.716;8.760;2023-02-28T15:35:32;8.80;72.20
20208;DHT22;10263;48.716;8.760;2023-02-28T15:38:01;8.40;72.90
20208;DHT22;10263;48.716;8.760;2023-02-28T15:40:30;8.20;73.80
20208;DHT22;10263;48.716;8.760;2023-02-28T15:42:59;7.90;74.10
20208;DHT22;10263;48.716;8.760;2023-02-28T15:45:28;7.60;74.40
20208;DHT22;10263;48.716;8.760;2023-02-28T15:47:55;7.30;75.70
20208;DHT22;10263;48.716;8.760;2023-02-28T15:50:22;7.00;77.40
20208;DHT22;10263;48.716;8.760;2023-02-28T15:52:51;6.80;77.60
20208;DHT22;10263;48.716;8.760;2023-02-28T15:55:19;6.80;77.80
20208;DHT22;10263;48.716;8.760;2023-02-28T15:57:49;6.70;78.40
20208;DHT22;10263;48.716;8.760;2023-02-28T16:00:20;6.60;78.70
20208;DHT22;10263;48.716;8.760;2023-02-28T16:02:47;6.50;78.80
20208;DHT22;10263;48.716;8.760;2023-02-28T16:05:23;6.50;80.00
20208;DHT22;10263;48.716;8.760;2023-02-28T16:07:58;6.40;78.90
20208;DHT22;10263;48.716;8.760;2023-02-28T16:10:29;6.30;80.20
20208;DHT22;10263;48.716;8.760;2023-02-28T16:12:56;5.90;80.90
20208;DHT22;10263;48.716;8.760;2023-02-28T16:15:25;5.70;80.70
20208;DHT22;10263;48.716;8.760;2023-02-28T16:17:53;5.60;80.90
20208;DHT22;10263;48.716;8.760;2023-02-28T16:20:21;5.50;81.80
20208;DHT22;10263;48.716;8.760;2023-02-28T16:22:48;5.40;82.70
20208;DHT22;10263;48.716;8.760;2023-02-28T16:25:19;5.30;83.50
20208;DHT22;10263;48.716;8.760;2023-02-28T16:27:59;5.10;83.50
20208;DHT22;10263;48.716;8.760;2023-02-28T16:30:28;5.10;84.20
20208;DHT22;10263;48.716;8.760;2023-02-28T16:32:57;4.90;84.90
20208;DHT22;10263;48.716;8.760;2023-02-28T16:35:24;4.90;85.50